SWA3740 KBNA-KMSY
Flight info
| Callsign | SWA3740 |
|---|---|
| Flight time | 1h 6m |
| Altitude | 36000 |
| Route | DRURY4 JALAR MERDN TRSSH1 |
| Aircraft | B738/M-SDE2E3FGHIRWXY/LB1 |
Departure
| Time | 2026-05-04 23:09 |
|---|---|
| Airport | Nashville International Airport (KBNA) |
Arrival
| Time | 2026-05-05 00:16 |
|---|---|
| Airport | Louis Armstrong New Orleans International Airport (KMSY) |
| Time | Latitude | Longitude | Altitude | Speed | Heading |
|---|---|---|---|---|---|
| 2026-05-04 22:29 | 36.12941 | -86.66968 | 568 ft | 0 kts | 298° |
| 2026-05-04 22:56 | 36.12940 | -86.66965 | 570 ft | 2 kts | 298° |
| 2026-05-04 22:56 | 36.12931 | -86.66945 | 570 ft | 3 kts | 299° |
| 2026-05-04 22:56 | 36.12923 | -86.66925 | 568 ft | 3 kts | 273° |
| 2026-05-04 22:56 | 36.12926 | -86.66904 | 568 ft | 3 kts | 233° |
| 2026-05-04 22:57 | 36.12939 | -86.66886 | 571 ft | 2 kts | 223° |
| 2026-05-04 22:57 | 36.12940 | -86.66885 | 571 ft | 2 kts | 223° |
| 2026-05-04 22:57 | 36.12925 | -86.66897 | 574 ft | 3 kts | 204° |
| 2026-05-04 22:57 | 36.12908 | -86.66895 | 568 ft | 3 kts | 160° |
| 2026-05-04 22:58 | 36.12895 | -86.66880 | 568 ft | 2 kts | 133° |
| 2026-05-04 22:58 | 36.12892 | -86.66877 | 568 ft | 0 kts | 131° |
| 2026-05-04 23:01 | 36.12884 | -86.66866 | 568 ft | 5 kts | 131° |
| 2026-05-04 23:01 | 36.12855 | -86.66826 | 571 ft | 8 kts | 130° |
| 2026-05-04 23:02 | 36.12808 | -86.66785 | 568 ft | 10 kts | 165° |
| 2026-05-04 23:02 | 36.12743 | -86.66805 | 574 ft | 10 kts | 219° |
| 2026-05-04 23:02 | 36.12691 | -86.66860 | 569 ft | 10 kts | 220° |
| 2026-05-04 23:02 | 36.12656 | -86.66895 | 571 ft | 10 kts | 215° |
| 2026-05-04 23:03 | 36.12609 | -86.66950 | 569 ft | 9 kts | 252° |
| 2026-05-04 23:03 | 36.12643 | -86.67023 | 571 ft | 11 kts | 309° |
| 2026-05-04 23:03 | 36.12697 | -86.67102 | 568 ft | 13 kts | 310° |
| 2026-05-04 23:03 | 36.12755 | -86.67187 | 568 ft | 13 kts | 310° |
| 2026-05-04 23:04 | 36.12811 | -86.67264 | 568 ft | 9 kts | 312° |
| 2026-05-04 23:04 | 36.12803 | -86.67332 | 571 ft | 9 kts | 227° |
| 2026-05-04 23:04 | 36.12758 | -86.67384 | 573 ft | 9 kts | 222° |
| 2026-05-04 23:04 | 36.12707 | -86.67437 | 574 ft | 10 kts | 214° |
| 2026-05-04 23:05 | 36.12643 | -86.67481 | 577 ft | 11 kts | 209° |
| 2026-05-04 23:05 | 36.12578 | -86.67534 | 577 ft | 12 kts | 221° |
| 2026-05-04 23:05 | 36.12511 | -86.67611 | 579 ft | 13 kts | 223° |
| 2026-05-04 23:05 | 36.12437 | -86.67676 | 579 ft | 13 kts | 199° |
| 2026-05-04 23:06 | 36.12374 | -86.67702 | 578 ft | 8 kts | 201° |
| 2026-05-04 23:06 | 36.12357 | -86.67756 | 578 ft | 7 kts | 284° |
| 2026-05-04 23:06 | 36.12373 | -86.67816 | 577 ft | 7 kts | 288° |
| 2026-05-04 23:06 | 36.12383 | -86.67856 | 580 ft | 1 kts | 288° |
| 2026-05-04 23:07 | 36.12384 | -86.67858 | 580 ft | 0 kts | 288° |
| 2026-05-04 23:07 | 36.12384 | -86.67860 | 580 ft | 0 kts | 288° |
| 2026-05-04 23:07 | 36.12387 | -86.67869 | 578 ft | 3 kts | 288° |
| 2026-05-04 23:07 | 36.12397 | -86.67908 | 577 ft | 6 kts | 288° |
| 2026-05-04 23:08 | 36.12407 | -86.67945 | 575 ft | 3 kts | 285° |
| 2026-05-04 23:08 | 36.12396 | -86.67970 | 575 ft | 4 kts | 216° |
| 2026-05-04 23:08 | 36.12352 | -86.67989 | 575 ft | 11 kts | 198° |
| 2026-05-04 23:08 | 36.12070 | -86.68103 | 574 ft | 79 kts | 198° |
| 2026-05-04 23:09 | 36.11336 | -86.68395 | 578 ft | 141 kts | 198° |
| 2026-05-04 23:09 | 36.10330 | -86.68772 | 947 ft | 159 kts | 197° |
| 2026-05-04 23:09 | 36.09338 | -86.69135 | 2016 ft | 146 kts | 199° |
| 2026-05-04 23:09 | 36.08325 | -86.69519 | 2772 ft | 158 kts | 200° |
| 2026-05-04 23:10 | 36.07303 | -86.69910 | 3665 ft | 155 kts | 199° |
| 2026-05-04 23:10 | 36.06208 | -86.70330 | 4156 ft | 177 kts | 199° |
| 2026-05-04 23:10 | 36.04934 | -86.70819 | 4374 ft | 205 kts | 199° |
| 2026-05-04 23:10 | 36.03512 | -86.71358 | 4781 ft | 222 kts | 199° |
| 2026-05-04 23:11 | 36.02003 | -86.71928 | 5293 ft | 235 kts | 199° |
| 2026-05-04 23:11 | 36.00919 | -86.72337 | 5339 ft | 260 kts | 198° |
| 2026-05-04 23:11 | 35.98615 | -86.73207 | 6686 ft | 255 kts | 199° |
| 2026-05-04 23:11 | 35.96810 | -86.73892 | 7610 ft | 259 kts | 200° |
| 2026-05-04 23:12 | 35.95099 | -86.74695 | 8414 ft | 262 kts | 215° |
| 2026-05-04 23:12 | 35.93762 | -86.76218 | 9232 ft | 264 kts | 233° |
| 2026-05-04 23:12 | 35.92703 | -86.78078 | 10075 ft | 266 kts | 238° |
| 2026-05-04 23:12 | 35.91703 | -86.80032 | 10534 ft | 284 kts | 239° |
| 2026-05-04 23:13 | 35.90615 | -86.82193 | 10720 ft | 309 kts | 239° |
| 2026-05-04 23:13 | 35.89439 | -86.84512 | 11072 ft | 326 kts | 238° |
| 2026-05-04 23:13 | 35.88213 | -86.86903 | 11738 ft | 332 kts | 238° |
| 2026-05-04 23:13 | 35.86966 | -86.89313 | 12512 ft | 335 kts | 238° |
| 2026-05-04 23:14 | 35.85701 | -86.91746 | 13268 ft | 339 kts | 238° |
| 2026-05-04 23:14 | 35.84419 | -86.94203 | 13971 ft | 343 kts | 238° |
| 2026-05-04 23:14 | 35.83125 | -86.96681 | 14687 ft | 345 kts | 238° |
| 2026-05-04 23:14 | 35.81821 | -86.99173 | 15410 ft | 348 kts | 239° |
| 2026-05-04 23:15 | 35.80498 | -87.01699 | 16036 ft | 353 kts | 238° |
| 2026-05-04 23:15 | 35.79105 | -87.04212 | 16685 ft | 359 kts | 232° |
| 2026-05-04 23:15 | 35.77185 | -87.06226 | 17335 ft | 367 kts | 217° |
| 2026-05-04 23:15 | 35.75025 | -87.07941 | 17986 ft | 372 kts | 216° |
| 2026-05-04 23:16 | 35.72824 | -87.09661 | 18531 ft | 377 kts | 216° |
| 2026-05-04 23:16 | 35.70598 | -87.11409 | 19071 ft | 381 kts | 216° |
| 2026-05-04 23:16 | 35.68360 | -87.13183 | 19627 ft | 385 kts | 216° |
| 2026-05-04 23:16 | 35.66105 | -87.14983 | 20155 ft | 389 kts | 216° |
| 2026-05-04 23:17 | 35.63826 | -87.16807 | 20679 ft | 392 kts | 216° |
| 2026-05-04 23:17 | 35.61491 | -87.18590 | 21177 ft | 398 kts | 213° |
| 2026-05-04 23:17 | 35.59043 | -87.20224 | 21707 ft | 403 kts | 211° |
| 2026-05-04 23:17 | 35.56540 | -87.21802 | 22215 ft | 406 kts | 210° |
| 2026-05-04 23:18 | 35.54006 | -87.23377 | 22699 ft | 411 kts | 210° |
| 2026-05-04 23:18 | 35.51440 | -87.24977 | 23179 ft | 414 kts | 210° |
| 2026-05-04 23:18 | 35.48873 | -87.26592 | 23647 ft | 418 kts | 211° |
| 2026-05-04 23:18 | 35.46313 | -87.28214 | 24047 ft | 421 kts | 211° |
| 2026-05-04 23:19 | 35.43714 | -87.29868 | 24528 ft | 421 kts | 211° |
| 2026-05-04 23:19 | 35.41076 | -87.31551 | 24982 ft | 423 kts | 211° |
| 2026-05-04 23:19 | 35.38457 | -87.33224 | 25388 ft | 426 kts | 211° |
| 2026-05-04 23:19 | 35.35822 | -87.34908 | 25721 ft | 430 kts | 211° |
| 2026-05-04 23:20 | 35.33161 | -87.36607 | 26093 ft | 433 kts | 211° |
| 2026-05-04 23:20 | 35.30518 | -87.38292 | 26519 ft | 434 kts | 211° |
| 2026-05-04 23:20 | 35.27837 | -87.40000 | 26926 ft | 436 kts | 211° |
| 2026-05-04 23:20 | 35.25141 | -87.41716 | 27303 ft | 438 kts | 211° |
| 2026-05-04 23:21 | 35.22433 | -87.43438 | 27669 ft | 440 kts | 211° |
| 2026-05-04 23:21 | 35.19710 | -87.45169 | 28012 ft | 443 kts | 211° |
| 2026-05-04 23:21 | 35.16968 | -87.46910 | 28349 ft | 445 kts | 211° |
| 2026-05-04 23:21 | 35.14218 | -87.48656 | 28700 ft | 447 kts | 211° |
| 2026-05-04 23:22 | 35.11450 | -87.50411 | 29051 ft | 449 kts | 211° |
| 2026-05-04 23:22 | 35.08676 | -87.52168 | 29387 ft | 451 kts | 211° |
| 2026-05-04 23:22 | 35.05889 | -87.53934 | 29721 ft | 453 kts | 211° |
| 2026-05-04 23:22 | 35.03104 | -87.55696 | 30037 ft | 454 kts | 211° |
| 2026-05-04 23:23 | 35.00281 | -87.57451 | 30377 ft | 455 kts | 210° |
| 2026-05-04 23:23 | 34.97381 | -87.59006 | 30779 ft | 455 kts | 207° |
| 2026-05-04 23:23 | 34.94433 | -87.60425 | 31067 ft | 457 kts | 206° |
| 2026-05-04 23:23 | 34.91447 | -87.61805 | 31281 ft | 460 kts | 206° |
| 2026-05-04 23:24 | 34.88451 | -87.63181 | 31582 ft | 460 kts | 206° |
| 2026-05-04 23:24 | 34.85460 | -87.64568 | 31935 ft | 459 kts | 207° |
| 2026-05-04 23:24 | 34.82487 | -87.65966 | 32276 ft | 459 kts | 207° |
| 2026-05-04 23:24 | 34.79510 | -87.67381 | 32561 ft | 459 kts | 208° |
| 2026-05-04 23:25 | 34.76535 | -87.68807 | 32849 ft | 460 kts | 208° |
| 2026-05-04 23:25 | 34.73559 | -87.70239 | 33160 ft | 460 kts | 208° |
| 2026-05-04 23:25 | 34.70582 | -87.71672 | 33390 ft | 461 kts | 211° |
| 2026-05-04 23:25 | 34.67581 | -87.73123 | 33413 ft | 468 kts | 211° |
| 2026-05-04 23:26 | 34.64540 | -87.74594 | 33532 ft | 472 kts | 211° |
| 2026-05-04 23:26 | 34.61484 | -87.76052 | 33850 ft | 471 kts | 211° |
| 2026-05-04 23:26 | 34.58436 | -87.77506 | 34197 ft | 469 kts | 211° |
| 2026-05-04 23:26 | 34.55401 | -87.78957 | 34478 ft | 469 kts | 212° |
| 2026-05-04 23:27 | 34.52368 | -87.80410 | 34705 ft | 469 kts | 212° |
| 2026-05-04 23:27 | 34.49332 | -87.81865 | 34946 ft | 469 kts | 212° |
| 2026-05-04 23:27 | 34.46294 | -87.83319 | 35187 ft | 469 kts | 212° |
| 2026-05-04 23:27 | 34.43263 | -87.84788 | 35365 ft | 469 kts | 214° |
| 2026-05-04 23:28 | 34.40249 | -87.86306 | 35534 ft | 471 kts | 212° |
| 2026-05-04 23:28 | 34.37204 | -87.87754 | 35782 ft | 470 kts | 213° |
| 2026-05-04 23:28 | 34.34156 | -87.89197 | 35962 ft | 472 kts | 212° |
| 2026-05-04 23:28 | 34.31075 | -87.90635 | 35938 ft | 474 kts | 212° |
| 2026-05-04 23:29 | 34.24949 | -87.93501 | 35947 ft | 470 kts | 213° |
| 2026-05-04 23:29 | 34.18916 | -87.96348 | 35892 ft | 467 kts | 213° |
| 2026-05-04 23:30 | 34.12890 | -87.99208 | 35935 ft | 464 kts | 214° |
| 2026-05-04 23:30 | 34.06894 | -88.02051 | 35951 ft | 464 kts | 214° |
| 2026-05-04 23:31 | 34.00877 | -88.04901 | 35949 ft | 465 kts | 213° |
| 2026-05-04 23:31 | 33.94834 | -88.07757 | 35958 ft | 468 kts | 213° |
| 2026-05-04 23:32 | 33.88756 | -88.10636 | 35938 ft | 469 kts | 214° |
| 2026-05-04 23:32 | 33.82643 | -88.13487 | 35947 ft | 473 kts | 214° |
| 2026-05-04 23:33 | 33.76506 | -88.16360 | 35949 ft | 475 kts | 215° |
| 2026-05-04 23:33 | 33.70338 | -88.19267 | 35939 ft | 477 kts | 214° |
| 2026-05-04 23:34 | 33.64144 | -88.22175 | 35920 ft | 478 kts | 215° |
| 2026-05-04 23:34 | 33.57933 | -88.25080 | 35922 ft | 479 kts | 215° |
| 2026-05-04 23:35 | 33.51711 | -88.27984 | 35936 ft | 480 kts | 215° |
| 2026-05-04 23:35 | 33.45486 | -88.30885 | 35937 ft | 480 kts | 215° |
| 2026-05-04 23:36 | 33.39269 | -88.33777 | 35969 ft | 479 kts | 215° |
| 2026-05-04 23:36 | 33.33066 | -88.36659 | 35967 ft | 478 kts | 215° |
| 2026-05-04 23:37 | 33.26874 | -88.39532 | 35971 ft | 477 kts | 215° |
| 2026-05-04 23:37 | 33.20695 | -88.42395 | 35971 ft | 476 kts | 215° |
| 2026-05-04 23:38 | 33.14530 | -88.45248 | 35917 ft | 475 kts | 216° |
| 2026-05-04 23:38 | 33.08378 | -88.48089 | 35955 ft | 473 kts | 215° |
| 2026-05-04 23:39 | 33.03279 | -88.50442 | 35979 ft | 473 kts | 215° |
| 2026-05-04 23:39 | 32.97137 | -88.53274 | 35993 ft | 474 kts | 215° |
| 2026-05-04 23:40 | 32.89985 | -88.56566 | 36002 ft | 475 kts | 215° |
| 2026-05-04 23:40 | 32.83812 | -88.59401 | 36001 ft | 476 kts | 215° |
| 2026-05-04 23:41 | 32.78672 | -88.61759 | 36005 ft | 477 kts | 215° |
| 2026-05-04 23:41 | 32.72427 | -88.64619 | 36007 ft | 479 kts | 215° |
| 2026-05-04 23:42 | 32.66269 | -88.67435 | 35999 ft | 480 kts | 214° |
| 2026-05-04 23:42 | 32.60023 | -88.70287 | 35957 ft | 481 kts | 214° |
| 2026-05-04 23:43 | 32.53778 | -88.73132 | 35985 ft | 481 kts | 214° |
| 2026-05-04 23:43 | 32.47523 | -88.75980 | 35997 ft | 482 kts | 214° |
| 2026-05-04 23:44 | 32.41269 | -88.78824 | 35989 ft | 482 kts | 214° |
| 2026-05-04 23:44 | 32.35529 | -88.82349 | 36000 ft | 441 kts | 235° |
| 2026-05-04 23:45 | 32.30872 | -88.87061 | 35986 ft | 440 kts | 235° |
| 2026-05-04 23:45 | 32.26176 | -88.91713 | 35996 ft | 441 kts | 234° |
| 2026-05-04 23:46 | 32.21440 | -88.96334 | 35995 ft | 442 kts | 234° |
| 2026-05-04 23:46 | 32.16695 | -89.00939 | 36004 ft | 441 kts | 234° |
| 2026-05-04 23:47 | 32.11950 | -89.05538 | 35999 ft | 442 kts | 234° |
| 2026-05-04 23:47 | 32.07199 | -89.10137 | 36001 ft | 442 kts | 234° |
| 2026-05-04 23:48 | 32.02459 | -89.14719 | 35998 ft | 440 kts | 234° |
| 2026-05-04 23:48 | 31.97722 | -89.19295 | 35997 ft | 440 kts | 234° |
| 2026-05-04 23:49 | 31.95335 | -89.21606 | 35516 ft | 447 kts | 233° |
| 2026-05-04 23:49 | 31.92942 | -89.23915 | 34952 ft | 445 kts | 233° |
| 2026-05-04 23:49 | 31.90539 | -89.26227 | 34361 ft | 445 kts | 233° |
| 2026-05-04 23:49 | 31.88144 | -89.28531 | 33691 ft | 446 kts | 233° |
| 2026-05-04 23:50 | 31.85740 | -89.30844 | 32979 ft | 447 kts | 233° |
| 2026-05-04 23:50 | 31.83366 | -89.33127 | 32343 ft | 446 kts | 232° |
| 2026-05-04 23:50 | 31.80974 | -89.35419 | 31882 ft | 441 kts | 232° |
| 2026-05-04 23:50 | 31.78606 | -89.37688 | 31365 ft | 437 kts | 232° |
| 2026-05-04 23:51 | 31.76262 | -89.39934 | 30922 ft | 433 kts | 232° |
| 2026-05-04 23:51 | 31.73941 | -89.42161 | 30470 ft | 429 kts | 232° |
| 2026-05-04 23:51 | 31.71635 | -89.44374 | 30012 ft | 426 kts | 231° |
| 2026-05-04 23:51 | 31.69348 | -89.46568 | 29478 ft | 423 kts | 231° |
| 2026-05-04 23:52 | 31.67081 | -89.48736 | 28971 ft | 419 kts | 231° |
| 2026-05-04 23:52 | 31.64836 | -89.50879 | 28597 ft | 413 kts | 230° |
| 2026-05-04 23:52 | 31.62625 | -89.52983 | 28200 ft | 407 kts | 230° |
| 2026-05-04 23:52 | 31.60428 | -89.55077 | 27828 ft | 408 kts | 230° |
| 2026-05-04 23:53 | 31.58219 | -89.57189 | 27454 ft | 412 kts | 230° |
| 2026-05-04 23:53 | 31.55993 | -89.59318 | 27066 ft | 413 kts | 229° |
| 2026-05-04 23:53 | 31.53776 | -89.61429 | 26668 ft | 409 kts | 229° |
| 2026-05-04 23:53 | 31.51576 | -89.63518 | 26260 ft | 405 kts | 228° |
| 2026-05-04 23:54 | 31.49398 | -89.65586 | 25885 ft | 401 kts | 228° |
| 2026-05-04 23:54 | 31.47240 | -89.67635 | 25529 ft | 398 kts | 228° |
| 2026-05-04 23:54 | 31.45094 | -89.69673 | 25163 ft | 396 kts | 227° |
| 2026-05-04 23:54 | 31.42963 | -89.71698 | 24799 ft | 393 kts | 227° |
| 2026-05-04 23:55 | 31.40842 | -89.73712 | 24422 ft | 392 kts | 227° |
| 2026-05-04 23:55 | 31.38727 | -89.75719 | 24058 ft | 391 kts | 226° |
| 2026-05-04 23:55 | 31.34518 | -89.79709 | 23255 ft | 388 kts | 226° |
| 2026-05-04 23:56 | 31.32427 | -89.81688 | 22870 ft | 385 kts | 226° |
| 2026-05-04 23:56 | 31.30354 | -89.83648 | 22499 ft | 382 kts | 226° |
| 2026-05-04 23:56 | 31.28295 | -89.85594 | 22132 ft | 379 kts | 226° |
| 2026-05-04 23:56 | 31.26248 | -89.87528 | 21772 ft | 377 kts | 225° |
| 2026-05-04 23:57 | 31.24219 | -89.89444 | 21393 ft | 374 kts | 226° |
| 2026-05-04 23:57 | 31.22226 | -89.91325 | 21064 ft | 372 kts | 226° |
| 2026-05-04 23:57 | 31.20192 | -89.93244 | 20720 ft | 370 kts | 226° |
| 2026-05-04 23:57 | 31.18214 | -89.95091 | 20381 ft | 369 kts | 223° |
| 2026-05-04 23:58 | 31.15985 | -89.96628 | 19991 ft | 377 kts | 211° |
| 2026-05-04 23:58 | 31.13526 | -89.97715 | 19595 ft | 377 kts | 206° |
| 2026-05-04 23:58 | 31.11015 | -89.98734 | 19128 ft | 377 kts | 206° |
| 2026-05-04 23:58 | 31.08577 | -89.99713 | 18680 ft | 375 kts | 206° |
| 2026-05-04 23:59 | 31.06114 | -90.00706 | 18275 ft | 373 kts | 206° |
| 2026-05-04 23:59 | 31.03646 | -90.01710 | 17867 ft | 369 kts | 206° |
| 2026-05-04 23:59 | 31.01229 | -90.02701 | 17486 ft | 367 kts | 206° |
| 2026-05-04 23:59 | 30.98857 | -90.03679 | 17111 ft | 366 kts | 206° |
| 2026-05-05 00:00 | 30.96466 | -90.04667 | 16739 ft | 364 kts | 206° |
| 2026-05-05 00:00 | 30.95662 | -90.04999 | 16615 ft | 363 kts | 206° |
| 2026-05-05 00:00 | 30.91683 | -90.06644 | 16025 ft | 361 kts | 206° |
| 2026-05-05 00:00 | 30.89355 | -90.07608 | 15684 ft | 359 kts | 206° |
| 2026-05-05 00:01 | 30.87007 | -90.08579 | 15336 ft | 358 kts | 206° |
| 2026-05-05 00:01 | 30.84667 | -90.09547 | 14995 ft | 357 kts | 205° |
| 2026-05-05 00:01 | 30.82323 | -90.10516 | 14648 ft | 356 kts | 205° |
| 2026-05-05 00:01 | 30.79992 | -90.11478 | 14302 ft | 355 kts | 205° |
| 2026-05-05 00:02 | 30.77668 | -90.12437 | 13954 ft | 354 kts | 205° |
| 2026-05-05 00:02 | 30.75352 | -90.13392 | 13584 ft | 352 kts | 205° |
| 2026-05-05 00:02 | 30.73047 | -90.14342 | 13213 ft | 350 kts | 205° |
| 2026-05-05 00:02 | 30.70758 | -90.15285 | 12856 ft | 348 kts | 205° |
| 2026-05-05 00:03 | 30.68482 | -90.16222 | 12513 ft | 346 kts | 205° |
| 2026-05-05 00:03 | 30.66223 | -90.17152 | 12180 ft | 343 kts | 204° |
| 2026-05-05 00:03 | 30.63991 | -90.18070 | 11842 ft | 338 kts | 204° |
| 2026-05-05 00:03 | 30.61786 | -90.18976 | 11518 ft | 334 kts | 204° |
| 2026-05-05 00:04 | 30.59607 | -90.19870 | 11209 ft | 330 kts | 204° |
| 2026-05-05 00:04 | 30.57381 | -90.20514 | 10813 ft | 335 kts | 187° |
| 2026-05-05 00:04 | 30.55031 | -90.20373 | 10425 ft | 338 kts | 179° |
| 2026-05-05 00:04 | 30.52687 | -90.20142 | 9974 ft | 338 kts | 179° |
| 2026-05-05 00:05 | 30.50373 | -90.19945 | 9892 ft | 326 kts | 180° |
| 2026-05-05 00:05 | 30.48152 | -90.19772 | 9838 ft | 314 kts | 180° |
| 2026-05-05 00:05 | 30.46013 | -90.19613 | 9759 ft | 303 kts | 180° |
| 2026-05-05 00:05 | 30.43938 | -90.19461 | 9573 ft | 296 kts | 180° |
| 2026-05-05 00:06 | 30.41896 | -90.19314 | 9219 ft | 292 kts | 180° |
| 2026-05-05 00:06 | 30.39872 | -90.19169 | 8775 ft | 290 kts | 180° |
| 2026-05-05 00:06 | 30.37870 | -90.19024 | 8462 ft | 284 kts | 180° |
| 2026-05-05 00:06 | 30.35916 | -90.18882 | 8023 ft | 283 kts | 180° |
| 2026-05-05 00:07 | 30.33935 | -90.18741 | 7499 ft | 285 kts | 180° |
| 2026-05-05 00:07 | 30.31966 | -90.18599 | 7055 ft | 282 kts | 180° |
| 2026-05-05 00:07 | 30.30015 | -90.18457 | 6640 ft | 279 kts | 180° |
| 2026-05-05 00:07 | 30.28088 | -90.18317 | 6234 ft | 276 kts | 179° |
| 2026-05-05 00:08 | 30.26219 | -90.18182 | 5796 ft | 272 kts | 179° |
| 2026-05-05 00:08 | 30.24310 | -90.18043 | 5391 ft | 267 kts | 179° |
| 2026-05-05 00:08 | 30.22493 | -90.17912 | 4997 ft | 263 kts | 179° |
| 2026-05-05 00:08 | 30.20720 | -90.18195 | 4544 ft | 258 kts | 204° |
| 2026-05-05 00:09 | 30.19309 | -90.19409 | 4089 ft | 256 kts | 232° |
| 2026-05-05 00:09 | 30.18611 | -90.21278 | 3790 ft | 255 kts | 258° |
| 2026-05-05 00:09 | 30.18440 | -90.23289 | 3504 ft | 250 kts | 264° |
| 2026-05-05 00:09 | 30.18345 | -90.25270 | 3200 ft | 244 kts | 264° |
| 2026-05-05 00:10 | 30.18171 | -90.27190 | 2877 ft | 237 kts | 250° |
| 2026-05-05 00:10 | 30.17469 | -90.28817 | 2830 ft | 218 kts | 238° |
| 2026-05-05 00:10 | 30.16718 | -90.30285 | 2680 ft | 208 kts | 229° |
| 2026-05-05 00:10 | 30.15565 | -90.31172 | 2527 ft | 194 kts | 199° |
| 2026-05-05 00:11 | 30.14355 | -90.31765 | 2370 ft | 185 kts | 203° |
| 2026-05-05 00:11 | 30.13225 | -90.32401 | 2204 ft | 179 kts | 205° |
| 2026-05-05 00:11 | 30.12112 | -90.33053 | 2087 ft | 180 kts | 205° |
| 2026-05-05 00:11 | 30.11008 | -90.33712 | 1960 ft | 176 kts | 206° |
| 2026-05-05 00:12 | 30.09930 | -90.34364 | 1819 ft | 175 kts | 205° |
| 2026-05-05 00:12 | 30.08873 | -90.35007 | 1691 ft | 170 kts | 205° |
| 2026-05-05 00:12 | 30.07772 | -90.35541 | 1567 ft | 172 kts | 195° |
| 2026-05-05 00:12 | 30.06599 | -90.35898 | 1447 ft | 175 kts | 192° |
| 2026-05-05 00:13 | 30.05440 | -90.36237 | 1315 ft | 168 kts | 194° |
| 2026-05-05 00:13 | 30.04355 | -90.36559 | 1188 ft | 155 kts | 193° |
| 2026-05-05 00:13 | 30.03302 | -90.36869 | 1079 ft | 158 kts | 191° |
| 2026-05-05 00:13 | 30.02235 | -90.36729 | 986 ft | 157 kts | 151° |
| 2026-05-05 00:14 | 30.01649 | -90.35728 | 875 ft | 150 kts | 115° |
| 2026-05-05 00:14 | 30.01277 | -90.34650 | 804 ft | 142 kts | 122° |
| 2026-05-05 00:14 | 30.00974 | -90.33553 | 677 ft | 148 kts | 108° |
| 2026-05-05 00:14 | 30.00686 | -90.32408 | 582 ft | 151 kts | 110° |
| 2026-05-05 00:15 | 30.00408 | -90.31226 | 492 ft | 152 kts | 112° |
| 2026-05-05 00:15 | 30.00134 | -90.30081 | 336 ft | 147 kts | 111° |
| 2026-05-05 00:15 | 29.99853 | -90.28954 | 173 ft | 145 kts | 109° |
| 2026-05-05 00:15 | 29.99587 | -90.27864 | 11 ft | 137 kts | 104° |
| 2026-05-05 00:16 | 29.99363 | -90.26932 | 7 ft | 98 kts | 105° |
| 2026-05-05 00:16 | 29.99235 | -90.26406 | 7 ft | 45 kts | 105° |
| 2026-05-05 00:16 | 29.99159 | -90.26081 | 5 ft | 37 kts | 105° |
| 2026-05-05 00:16 | 29.99103 | -90.25852 | 7 ft | 25 kts | 106° |
| 2026-05-05 00:17 | 29.99067 | -90.25695 | 7 ft | 11 kts | 92° |
| 2026-05-05 00:17 | 29.99107 | -90.25642 | 5 ft | 10 kts | 18° |
| 2026-05-05 00:17 | 29.99171 | -90.25624 | 4 ft | 5 kts | 13° |
| 2026-05-05 00:17 | 29.99176 | -90.25623 | 4 ft | 0 kts | 13° |
| 2026-05-05 00:18 | 29.99183 | -90.25623 | 4 ft | 2 kts | 359° |
| 2026-05-05 00:18 | 29.99198 | -90.25649 | 3 ft | 7 kts | 283° |
| 2026-05-05 00:18 | 29.99213 | -90.25718 | 3 ft | 10 kts | 279° |
| 2026-05-05 00:18 | 29.99228 | -90.25793 | 3 ft | 9 kts | 286° |
| 2026-05-05 00:19 | 29.99265 | -90.25851 | 3 ft | 9 kts | 333° |
| 2026-05-05 00:19 | 29.99329 | -90.25854 | 3 ft | 9 kts | 10° |
| 2026-05-05 00:19 | 29.99392 | -90.25836 | 3 ft | 9 kts | 16° |
| 2026-05-05 00:19 | 29.99446 | -90.25815 | 4 ft | 8 kts | 31° |
| 2026-05-05 00:20 | 29.99450 | -90.25760 | 5 ft | 6 kts | 100° |
| 2026-05-05 00:20 | 29.99446 | -90.25737 | 7 ft | 0 kts | 101° |